createdAt,value
2023-05-16T00:00:06.901Z,71.50
2023-05-16T00:01:05.909Z,72.80
2023-05-16T00:02:09.553Z,72.40
2023-05-16T00:04:04.073Z,72.00
2023-05-16T00:05:06.392Z,72.00
2023-05-16T00:08:06.611Z,72.80
2023-05-16T00:10:04.261Z,72.50
2023-05-16T00:11:04.285Z,72.20
2023-05-16T00:12:06.734Z,71.80
2023-05-16T00:13:04.268Z,71.40
2023-05-16T00:15:03.550Z,72.80
2023-05-16T00:16:04.171Z,73.20
2023-05-16T00:17:04.155Z,72.50
2023-05-16T00:18:03.982Z,72.00
2023-05-16T00:19:06.567Z,72.80
2023-05-16T00:20:06.697Z,72.40
2023-05-16T00:21:06.656Z,71.70
2023-05-16T00:23:03.678Z,71.60
2023-05-16T00:24:11.874Z,71.20
2023-05-16T00:26:04.284Z,71.50
2023-05-16T00:27:04.064Z,71.80
2023-05-16T00:28:03.785Z,71.20
2023-05-16T00:29:06.859Z,71.50
2023-05-16T00:31:05.922Z,71.40
2023-05-16T00:32:06.142Z,71.10
2023-05-16T00:33:06.550Z,71.40
2023-05-16T00:35:03.803Z,71.20
2023-05-16T00:36:04.341Z,71.50
2023-05-16T00:37:04.297Z,71.90
2023-05-16T00:38:05.906Z,71.70
2023-05-16T00:39:06.900Z,71.60
2023-05-16T00:41:04.326Z,71.90
2023-05-16T00:42:04.291Z,71.10
2023-05-16T00:44:06.506Z,71.70
2023-05-16T00:45:08.974Z,71.20
2023-05-16T00:47:04.309Z,71.50
2023-05-16T00:49:06.606Z,70.90
2023-05-16T00:51:03.627Z,72.10
2023-05-16T00:52:06.766Z,72.00
2023-05-16T00:53:04.350Z,71.60
2023-05-16T00:54:04.309Z,72.00
2023-05-16T00:56:04.070Z,72.60
2023-05-16T00:57:03.658Z,72.00
2023-05-16T00:58:06.777Z,72.80
2023-05-16T00:59:04.251Z,72.40
2023-05-16T01:00:06.540Z,72.70
2023-05-16T01:02:04.148Z,73.00
2023-05-16T01:03:03.878Z,72.80
2023-05-16T01:04:03.904Z,72.30
2023-05-16T01:05:06.406Z,73.70
2023-05-16T01:06:06.466Z,73.10
2023-05-16T01:07:03.864Z,72.60
2023-05-16T01:09:04.100Z,73.00
2023-05-16T01:10:06.382Z,73.30
2023-05-16T01:12:09.472Z,72.10
2023-05-16T01:13:03.910Z,72.60
2023-05-16T01:14:03.511Z,73.00
2023-05-16T01:15:06.673Z,73.40
2023-05-16T01:16:06.834Z,73.70
2023-05-16T01:17:04.373Z,73.50
2023-05-16T01:18:11.994Z,73.40
2023-05-16T01:20:04.140Z,74.10
2023-05-16T01:22:05.904Z,74.00
2023-05-16T01:23:12.020Z,73.00
2023-05-16T01:25:04.219Z,74.30
2023-05-16T01:26:06.429Z,74.20
2023-05-16T01:27:06.511Z,74.60
2023-05-16T01:29:03.639Z,74.50
2023-05-16T01:30:06.764Z,74.90
2023-05-16T01:31:04.279Z,74.60
2023-05-16T01:32:04.053Z,74.00
2023-05-16T01:33:06.672Z,75.40
2023-05-16T01:34:04.084Z,75.30
2023-05-16T01:35:03.645Z,75.40
2023-05-16T01:36:04.213Z,75.60
2023-05-16T01:37:06.426Z,74.70
2023-05-16T01:38:03.871Z,74.90
2023-05-16T01:39:05.996Z,75.20
2023-05-16T01:40:03.563Z,75.30
2023-05-16T01:41:03.608Z,75.40
2023-05-16T01:42:04.219Z,75.40
2023-05-16T01:43:03.835Z,75.30
2023-05-16T01:44:05.922Z,75.20
2023-05-16T01:45:04.392Z,74.90
2023-05-16T01:46:09.494Z,74.90
2023-05-16T01:48:03.647Z,75.20
2023-05-16T01:49:06.839Z,75.30
2023-05-16T01:50:04.302Z,75.30
2023-05-16T01:51:03.839Z,75.50
2023-05-16T01:52:06.445Z,75.00
2023-05-16T01:53:06.416Z,75.50
2023-05-16T01:54:03.937Z,75.10
2023-05-16T01:55:08.497Z,74.80
2023-05-16T01:56:14.059Z,74.50
2023-05-16T01:57:03.547Z,74.00
2023-05-16T01:58:04.232Z,75.60
2023-05-16T01:59:03.846Z,75.10
2023-05-16T02:01:04.372Z,75.20
2023-05-16T02:02:05.938Z,75.70
2023-05-16T02:04:06.694Z,76.20
2023-05-16T02:05:09.349Z,76.20
2023-05-16T02:06:03.746Z,76.10
2023-05-16T02:07:04.378Z,76.80
2023-05-16T02:08:05.975Z,76.80
2023-05-16T02:10:04.200Z,76.90
2023-05-16T02:11:03.718Z,77.10
2023-05-16T02:12:04.218Z,77.30
2023-05-16T02:13:06.479Z,76.80
2023-05-16T02:14:03.974Z,76.40
2023-05-16T02:15:06.535Z,76.70
2023-05-16T02:17:03.911Z,76.70
2023-05-16T02:19:04.329Z,77.40
2023-05-16T02:20:04.379Z,77.80
2023-05-16T02:21:09.488Z,77.90
2023-05-16T02:22:06.500Z,77.90
2023-05-16T02:23:03.973Z,77.70
2023-05-16T02:24:03.702Z,77.90
2023-05-16T02:25:04.445Z,77.40
2023-05-16T02:26:04.457Z,77.30
2023-05-16T02:27:06.824Z,77.00
2023-05-16T02:29:03.932Z,77.20
2023-05-16T02:31:04.345Z,76.40
2023-05-16T02:32:06.563Z,77.20
2023-05-16T02:34:03.861Z,76.60
2023-05-16T02:35:04.423Z,77.40
2023-05-16T02:36:04.438Z,77.30
2023-05-16T02:38:04.069Z,77.30
2023-05-16T02:40:06.899Z,77.40
2023-05-16T02:42:03.558Z,77.50
2023-05-16T02:43:04.232Z,77.50
2023-05-16T02:45:03.494Z,77.30
2023-05-16T02:46:09.247Z,76.80
2023-05-16T02:47:03.791Z,76.80
2023-05-16T02:48:07.011Z,76.60
2023-05-16T02:49:11.139Z,76.40
2023-05-16T02:50:03.594Z,76.60
2023-05-16T02:51:06.697Z,77.50
2023-05-16T02:53:06.524Z,77.30
2023-05-16T02:55:22.490Z,77.20
2023-05-16T02:57:04.279Z,78.10
2023-05-16T03:00:04.162Z,77.10
2023-05-16T03:01:03.876Z,77.20
2023-05-16T03:03:04.439Z,77.20
2023-05-16T03:04:03.621Z,77.00
2023-05-16T03:05:04.325Z,77.00
2023-05-16T03:06:06.653Z,77.00
2023-05-16T03:07:06.601Z,76.80
2023-05-16T03:09:06.561Z,76.80
2023-05-16T03:11:04.321Z,77.50
2023-05-16T03:12:07.607Z,76.70
2023-05-16T03:13:03.994Z,76.60
2023-05-16T03:14:06.541Z,76.70
2023-05-16T03:15:04.018Z,76.50
2023-05-16T03:16:04.181Z,77.10
2023-05-16T03:18:06.750Z,76.70
2023-05-16T03:20:08.875Z,77.00
2023-05-16T03:22:04.089Z,77.20
2023-05-16T03:23:03.769Z,77.20
2023-05-16T03:25:06.549Z,77.00
2023-05-16T03:26:09.144Z,77.00
2023-05-16T03:27:03.672Z,76.90
2023-05-16T03:28:04.338Z,76.90
2023-05-16T03:29:04.048Z,76.90
2023-05-16T03:30:06.608Z,76.80
2023-05-16T03:31:04.218Z,76.40
2023-05-16T03:32:06.779Z,76.70
2023-05-16T03:33:09.564Z,77.10
2023-05-16T03:35:03.594Z,77.00
2023-05-16T03:36:04.178Z,77.20
2023-05-16T03:37:08.796Z,78.30
2023-05-16T03:38:04.224Z,78.60
2023-05-16T03:40:03.527Z,77.40
2023-05-16T03:41:06.797Z,76.40
2023-05-16T03:43:06.571Z,76.90
2023-05-16T03:44:06.676Z,77.00
2023-05-16T03:46:06.683Z,77.30
2023-05-16T03:47:06.722Z,77.50
2023-05-16T03:48:04.291Z,77.20
2023-05-16T03:49:06.554Z,78.00
2023-05-16T03:50:06.574Z,78.00
2023-05-16T03:52:06.602Z,78.00
2023-05-16T03:53:06.664Z,77.50
2023-05-16T03:54:04.078Z,77.00
2023-05-16T03:56:04.533Z,78.10
2023-05-16T03:57:06.606Z,77.70
2023-05-16T03:59:08.935Z,76.80
2023-05-16T04:00:04.313Z,76.70
2023-05-16T04:01:06.633Z,77.20
2023-05-16T04:02:09.252Z,78.00
2023-05-16T04:03:03.887Z,78.10
2023-05-16T04:04:08.582Z,76.60
2023-05-16T04:06:04.254Z,77.00
2023-05-16T04:07:06.577Z,78.10
2023-05-16T04:09:04.108Z,77.70
2023-05-16T04:10:03.913Z,77.90
2023-05-16T04:11:06.626Z,77.80
2023-05-16T04:13:04.024Z,77.10
2023-05-16T04:14:06.962Z,76.60
2023-05-16T04:15:06.609Z,78.20
2023-05-16T04:16:09.117Z,77.40
2023-05-16T04:18:04.345Z,77.20
2023-05-16T04:19:06.708Z,77.70
2023-05-16T04:20:07.662Z,77.90
2023-05-16T04:21:04.227Z,77.70
2023-05-16T04:22:06.583Z,77.70
2023-05-16T04:24:03.465Z,77.80
2023-05-16T04:25:06.952Z,77.70
2023-05-16T04:26:03.814Z,77.70
2023-05-16T04:27:04.406Z,77.60
2023-05-16T04:29:03.582Z,77.90
2023-05-16T04:30:04.194Z,78.00
2023-05-16T04:31:03.962Z,78.00
2023-05-16T04:33:04.292Z,78.10
2023-05-16T04:34:03.944Z,77.90
2023-05-16T04:35:06.631Z,78.00
2023-05-16T04:36:04.093Z,77.70
2023-05-16T04:37:03.635Z,78.00
2023-05-16T04:38:04.238Z,78.30
2023-05-16T04:39:04.372Z,78.60
2023-05-16T04:42:04.210Z,77.70
2023-05-16T04:43:08.958Z,79.20
2023-05-16T04:45:04.173Z,78.30
2023-05-16T04:46:03.842Z,78.60
2023-05-16T04:47:04.461Z,79.10
2023-05-16T04:48:06.723Z,77.70
2023-05-16T04:49:06.791Z,77.40
2023-05-16T04:52:03.433Z,77.30
2023-05-16T04:53:04.036Z,77.20
2023-05-16T04:54:03.757Z,77.10
2023-05-16T04:55:04.377Z,77.00
2023-05-16T04:56:03.953Z,77.10
2023-05-16T04:57:03.675Z,77.50
2023-05-16T04:58:09.442Z,77.90
2023-05-16T04:59:06.644Z,78.90
2023-05-16T05:01:03.962Z,77.20
2023-05-16T05:02:03.544Z,77.20
2023-05-16T05:03:04.166Z,77.50
2023-05-16T05:04:06.636Z,77.60
2023-05-16T05:06:04.326Z,77.70
2023-05-16T05:07:03.495Z,77.60
2023-05-16T05:08:04.171Z,78.20
2023-05-16T05:09:03.795Z,78.50
2023-05-16T05:10:04.445Z,78.30
2023-05-16T05:11:09.116Z,78.30
2023-05-16T05:13:06.652Z,77.60
2023-05-16T05:15:03.712Z,77.20
2023-05-16T05:16:04.327Z,77.60
2023-05-16T05:17:04.094Z,77.50
2023-05-16T05:18:06.991Z,75.80
2023-05-16T05:19:06.788Z,75.30
2023-05-16T05:20:06.802Z,75.60
2023-05-16T05:22:03.941Z,75.90
2023-05-16T05:23:06.705Z,75.00
2023-05-16T05:24:04.152Z,73.90
2023-05-16T05:25:03.867Z,73.70
2023-05-16T05:27:06.825Z,75.00
2023-05-16T05:29:06.517Z,75.00
2023-05-16T05:30:06.713Z,73.10
2023-05-16T05:31:07.139Z,73.60
2023-05-16T05:32:03.836Z,73.30
2023-05-16T05:33:06.831Z,74.20
2023-05-16T05:34:06.879Z,74.10
2023-05-16T05:36:04.635Z,74.30
2023-05-16T05:37:06.706Z,72.30
2023-05-16T05:38:04.056Z,74.20
2023-05-16T05:39:03.728Z,73.70
2023-05-16T05:40:04.298Z,71.90
2023-05-16T05:41:09.002Z,73.10
2023-05-16T05:43:03.998Z,73.80
2023-05-16T05:45:04.364Z,74.80
2023-05-16T05:46:06.847Z,74.40
2023-05-16T05:47:07.018Z,73.60
2023-05-16T05:49:04.099Z,73.00
2023-05-16T05:50:03.622Z,73.20
2023-05-16T05:51:04.245Z,73.40
2023-05-16T05:52:06.725Z,73.10
2023-05-16T05:53:06.731Z,73.50
2023-05-16T05:54:06.730Z,74.30
2023-05-16T05:57:08.487Z,73.10
2023-05-16T05:58:07.441Z,73.20
2023-05-16T05:59:04.026Z,73.00
2023-05-16T06:00:03.689Z,73.00
2023-05-16T06:01:09.419Z,72.70
2023-05-16T06:02:06.815Z,73.00
2023-05-16T06:04:03.962Z,73.20
2023-05-16T06:05:03.628Z,73.10
2023-05-16T06:06:08.620Z,72.90
2023-05-16T06:08:04.096Z,73.10
2023-05-16T06:09:06.737Z,73.20
2023-05-16T06:10:06.445Z,73.10
2023-05-16T06:11:04.037Z,73.30
2023-05-16T06:12:03.621Z,73.30
2023-05-16T06:13:06.915Z,74.10
2023-05-16T06:14:06.976Z,74.00
2023-05-16T06:16:04.066Z,73.80
2023-05-16T06:17:03.693Z,73.70
2023-05-16T06:18:04.404Z,73.80
2023-05-16T06:19:04.180Z,73.30
2023-05-16T06:20:03.819Z,73.40
2023-05-16T06:21:04.385Z,73.20
2023-05-16T06:22:03.934Z,73.20
2023-05-16T06:24:04.143Z,73.00
2023-05-16T06:25:06.717Z,72.70
2023-05-16T06:26:06.739Z,71.90
2023-05-16T06:28:03.789Z,72.90
2023-05-16T06:29:06.911Z,73.20
2023-05-16T06:30:04.407Z,73.20
2023-05-16T06:31:04.092Z,72.40
2023-05-16T06:32:03.795Z,73.10
2023-05-16T06:34:04.213Z,72.90
2023-05-16T06:35:06.735Z,72.60
2023-05-16T06:36:09.358Z,72.50
2023-05-16T06:38:04.245Z,72.90
2023-05-16T06:39:06.751Z,73.30
2023-05-16T06:41:03.780Z,71.80
2023-05-16T06:42:04.449Z,72.20
2023-05-16T06:43:04.107Z,72.30
2023-05-16T06:44:06.745Z,72.50
2023-05-16T06:45:04.168Z,72.30
2023-05-16T06:46:03.937Z,73.20
2023-05-16T06:47:03.670Z,74.00
2023-05-16T06:48:04.526Z,73.20
2023-05-16T06:49:04.279Z,73.00
2023-05-16T06:51:06.813Z,72.50
2023-05-16T06:52:09.372Z,72.20
2023-05-16T06:53:06.765Z,72.40
2023-05-16T06:54:09.280Z,72.70
2023-05-16T06:55:06.773Z,73.00
2023-05-16T06:56:04.206Z,72.70
2023-05-16T06:57:03.783Z,72.80
2023-05-16T06:58:04.381Z,72.70
2023-05-16T07:00:11.779Z,72.30
2023-05-16T07:03:06.974Z,73.20
2023-05-16T07:04:07.405Z,72.40
2023-05-16T07:05:03.901Z,72.20
2023-05-16T07:06:03.553Z,72.00
2023-05-16T07:07:06.749Z,72.40
2023-05-16T07:08:08.008Z,72.20
2023-05-16T07:09:06.817Z,72.30
2023-05-16T07:10:04.224Z,73.20
2023-05-16T07:12:04.313Z,73.00
2023-05-16T07:14:07.036Z,72.80
2023-05-16T07:15:06.785Z,72.90
2023-05-16T07:17:06.886Z,72.90
2023-05-16T07:18:04.444Z,72.70
2023-05-16T07:19:04.236Z,72.90
2023-05-16T07:20:06.514Z,72.90
2023-05-16T07:22:04.069Z,72.00
2023-05-16T07:24:09.515Z,72.50
2023-05-16T07:25:03.993Z,71.30
2023-05-16T07:27:04.111Z,73.00
2023-05-16T07:28:03.702Z,72.10
2023-05-16T07:29:04.266Z,71.60
2023-05-16T07:30:03.858Z,71.60
2023-05-16T07:31:07.005Z,72.10
2023-05-16T07:32:07.037Z,72.20
2023-05-16T07:34:06.762Z,72.40
2023-05-16T07:35:04.202Z,72.20
2023-05-16T07:36:17.422Z,72.50
2023-05-16T07:38:06.991Z,72.80
2023-05-16T07:40:04.100Z,72.70
2023-05-16T07:41:11.314Z,72.10
2023-05-16T07:42:11.463Z,72.50
2023-05-16T07:43:03.980Z,72.70
2023-05-16T07:45:04.139Z,73.00
2023-05-16T07:46:08.906Z,72.40
2023-05-16T07:48:07.227Z,73.70
2023-05-16T07:49:03.735Z,73.60
2023-05-16T07:50:04.389Z,73.00
2023-05-16T07:51:09.078Z,73.20
2023-05-16T07:53:04.012Z,73.30
2023-05-16T07:54:06.845Z,73.30
2023-05-16T07:55:06.947Z,73.00
2023-05-16T07:58:06.798Z,72.80
2023-05-16T08:00:06.825Z,72.80
2023-05-16T08:01:06.944Z,72.90
2023-05-16T08:03:04.523Z,72.70
2023-05-16T08:04:04.458Z,72.70
2023-05-16T08:05:06.977Z,72.70
2023-05-16T08:07:04.144Z,72.60
2023-05-16T08:08:08.912Z,72.90
2023-05-16T08:10:13.445Z,72.00
2023-05-16T08:12:06.947Z,72.20
2023-05-16T08:13:04.325Z,72.20
2023-05-16T08:14:03.848Z,72.20
2023-05-16T08:15:04.467Z,71.50
2023-05-16T08:16:06.984Z,71.90
2023-05-16T08:18:04.252Z,71.70
2023-05-16T08:19:06.900Z,71.60
2023-05-16T08:20:11.101Z,71.00
2023-05-16T08:21:03.578Z,71.20
2023-05-16T08:22:04.162Z,71.50
2023-05-16T08:23:03.760Z,71.50
2023-05-16T08:24:04.410Z,71.50
2023-05-16T08:25:06.805Z,71.90
2023-05-16T08:27:06.855Z,71.70
2023-05-16T08:30:03.500Z,71.60
2023-05-16T08:31:04.162Z,71.80
2023-05-16T08:32:03.698Z,71.90
2023-05-16T08:33:04.413Z,72.10
2023-05-16T08:34:06.800Z,71.30
2023-05-16T08:35:04.230Z,71.00
2023-05-16T08:36:03.880Z,71.90
2023-05-16T08:37:04.452Z,71.70
2023-05-16T08:38:06.815Z,71.80
2023-05-16T08:39:06.848Z,71.90
2023-05-16T08:40:04.268Z,71.60
2023-05-16T08:41:03.825Z,71.60
2023-05-16T08:42:06.947Z,71.70
2023-05-16T08:43:04.745Z,71.70
2023-05-16T08:44:06.839Z,71.70
2023-05-16T08:45:04.335Z,71.80
2023-05-16T08:46:06.864Z,72.10
2023-05-16T08:48:04.188Z,72.00
2023-05-16T08:49:03.748Z,71.80
2023-05-16T08:50:04.315Z,71.50
2023-05-16T08:51:06.874Z,72.10
2023-05-16T08:52:04.327Z,71.90
2023-05-16T08:53:03.867Z,71.80
2023-05-16T08:54:06.931Z,71.10
2023-05-16T08:55:11.806Z,71.20
2023-05-16T08:57:03.487Z,71.60
2023-05-16T08:58:06.870Z,71.10
2023-05-16T08:59:06.882Z,71.40
2023-05-16T09:00:04.353Z,71.10
2023-05-16T09:02:03.689Z,71.40
2023-05-16T09:03:06.998Z,71.30
2023-05-16T09:04:06.929Z,70.30
2023-05-16T09:05:09.550Z,69.60
2023-05-16T09:06:08.090Z,71.50
2023-05-16T09:07:06.912Z,71.20
2023-05-16T09:08:04.286Z,71.10
2023-05-16T09:10:04.299Z,71.60
2023-05-16T09:11:03.875Z,71.90
2023-05-16T09:12:09.505Z,71.60
2023-05-16T09:13:04.091Z,71.80
2023-05-16T09:14:03.989Z,72.20
2023-05-16T09:15:03.538Z,71.60
2023-05-16T09:16:04.138Z,71.70
2023-05-16T09:17:03.892Z,71.90
2023-05-16T09:18:03.942Z,71.80
2023-05-16T09:19:03.899Z,71.60
2023-05-16T09:20:08.666Z,71.40
2023-05-16T09:21:04.178Z,70.90
2023-05-16T09:22:03.834Z,71.10
2023-05-16T09:23:03.702Z,71.00
2023-05-16T09:24:04.259Z,71.00
2023-05-16T09:25:18.499Z,71.40
2023-05-16T09:26:06.949Z,71.30
2023-05-16T09:27:11.525Z,71.50
2023-05-16T09:29:03.926Z,72.30
2023-05-16T09:30:03.484Z,71.00
2023-05-16T09:31:07.096Z,71.40
2023-05-16T09:32:03.631Z,71.20
2023-05-16T09:33:06.983Z,71.80
2023-05-16T09:34:06.928Z,71.70
2023-05-16T09:35:07.005Z,71.60
2023-05-16T09:36:06.991Z,71.20
2023-05-16T09:37:04.406Z,70.90
2023-05-16T09:39:08.710Z,72.00
2023-05-16T09:41:03.672Z,71.00
2023-05-16T09:42:04.236Z,71.30
2023-05-16T09:43:03.808Z,68.60
2023-05-16T09:44:04.455Z,70.40
2023-05-16T09:45:04.021Z,69.90
2023-05-16T09:47:04.141Z,69.90
2023-05-16T09:48:07.271Z,70.10
2023-05-16T09:49:04.448Z,70.30
2023-05-16T09:50:07.231Z,70.40
2023-05-16T09:51:03.720Z,70.10
2023-05-16T09:52:06.897Z,70.10
2023-05-16T09:54:04.245Z,70.30
2023-05-16T09:55:03.917Z,70.30
2023-05-16T09:56:03.501Z,70.30
2023-05-16T09:57:04.159Z,70.30
2023-05-16T09:58:06.961Z,70.10
2023-05-16T09:59:06.987Z,70.00
2023-05-16T10:00:16.183Z,69.60
2023-05-16T10:02:04.513Z,69.80
2023-05-16T10:03:07.152Z,70.20
2023-05-16T10:05:04.521Z,69.80
2023-05-16T10:06:04.098Z,70.10
2023-05-16T10:08:04.425Z,70.30
2023-05-16T10:10:03.688Z,70.60
2023-05-16T10:11:07.054Z,70.10
2023-05-16T10:12:06.979Z,70.50
2023-05-16T10:13:04.432Z,70.20
2023-05-16T10:14:07.892Z,70.70
2023-05-16T10:15:03.516Z,70.70
2023-05-16T10:16:04.232Z,70.50
2023-05-16T10:17:06.929Z,70.20
2023-05-16T10:18:09.670Z,70.00
2023-05-16T10:20:11.500Z,69.80
2023-05-16T10:22:06.950Z,70.00
2023-05-16T10:23:06.932Z,69.90
2023-05-16T10:24:04.473Z,69.60
2023-05-16T10:25:06.918Z,69.90
2023-05-16T10:26:07.068Z,69.50
2023-05-16T10:27:06.960Z,69.30
2023-05-16T10:28:04.463Z,69.20
2023-05-16T10:30:03.752Z,69.20
2023-05-16T10:31:06.900Z,69.10
2023-05-16T10:32:04.434Z,69.20
2023-05-16T10:33:07.117Z,69.10
2023-05-16T10:34:03.615Z,69.10
2023-05-16T10:35:09.288Z,69.40
2023-05-16T10:36:03.739Z,69.30
2023-05-16T10:37:04.280Z,69.70
2023-05-16T10:38:08.112Z,69.90
2023-05-16T10:39:03.708Z,69.90
2023-05-16T10:40:04.217Z,70.20
2023-05-16T10:41:03.836Z,70.10
2023-05-16T10:42:04.402Z,70.00
2023-05-16T10:43:06.955Z,69.80
2023-05-16T10:44:04.436Z,69.90
2023-05-16T10:45:06.713Z,69.70
2023-05-16T10:49:04.236Z,69.70
2023-05-16T10:50:03.778Z,69.90
2023-05-16T10:51:04.864Z,69.70
2023-05-16T10:52:04.460Z,70.00
2023-05-16T10:53:04.132Z,69.40
2023-05-16T10:54:03.775Z,69.70
2023-05-16T10:55:06.969Z,69.10
2023-05-16T10:56:04.410Z,69.10
2023-05-16T10:57:09.036Z,69.40
2023-05-16T10:58:03.450Z,69.20
2023-05-16T10:59:04.027Z,69.50
2023-05-16T11:00:03.722Z,69.20
2023-05-16T11:01:07.047Z,68.70
2023-05-16T11:03:07.939Z,68.10
2023-05-16T11:04:08.670Z,67.80
2023-05-16T11:05:04.125Z,67.60
2023-05-16T11:06:03.691Z,67.70
2023-05-16T11:07:06.970Z,67.50
2023-05-16T11:08:06.971Z,67.50
2023-05-16T11:09:07.073Z,67.30
2023-05-16T11:11:08.690Z,66.90
2023-05-16T11:13:07.001Z,67.30
2023-05-16T11:14:03.502Z,67.20
2023-05-16T11:15:04.059Z,67.50
2023-05-16T11:16:03.555Z,67.80
2023-05-16T11:17:04.342Z,67.50
2023-05-16T11:18:03.955Z,67.70
2023-05-16T11:20:04.232Z,67.00
2023-05-16T11:21:07.042Z,67.60
2023-05-16T11:23:07.091Z,67.40
2023-05-16T11:24:03.505Z,67.50
2023-05-16T11:25:04.100Z,67.70
2023-05-16T11:26:08.797Z,67.80
2023-05-16T11:29:04.069Z,68.00
2023-05-16T11:30:04.609Z,68.10
2023-05-16T11:31:04.323Z,68.10
2023-05-16T11:32:04.173Z,68.20
2023-05-16T11:33:03.839Z,67.90
2023-05-16T11:35:04.156Z,67.90
2023-05-16T11:36:16.498Z,68.10
2023-05-16T11:39:03.536Z,68.00
2023-05-16T11:40:07.217Z,67.70
2023-05-16T11:41:03.775Z,67.40
2023-05-16T11:42:04.335Z,67.60
2023-05-16T11:43:07.370Z,67.10
2023-05-16T11:44:07.036Z,67.60
2023-05-16T11:45:07.038Z,67.30
2023-05-16T11:46:03.528Z,67.30
2023-05-16T11:47:07.239Z,67.20
2023-05-16T11:48:08.959Z,67.10
2023-05-16T11:49:08.555Z,67.20
2023-05-16T11:51:09.643Z,66.70
2023-05-16T11:52:04.130Z,66.60
2023-05-16T11:54:04.417Z,67.70
2023-05-16T11:55:07.087Z,68.10
2023-05-16T11:57:04.279Z,68.20
2023-05-16T11:59:07.057Z,67.80
2023-05-16T12:00:07.096Z,68.20
2023-05-16T12:01:07.144Z,68.50
2023-05-16T12:03:04.736Z,68.20
2023-05-16T12:04:04.233Z,68.50
2023-05-16T12:05:04.401Z,68.30
2023-05-16T12:06:07.050Z,68.40
2023-05-16T12:07:03.463Z,68.00
2023-05-16T12:08:04.132Z,68.80
2023-05-16T12:09:07.073Z,68.50
2023-05-16T12:10:07.011Z,68.30
2023-05-16T12:11:04.282Z,68.20
2023-05-16T12:12:07.180Z,68.30
2023-05-16T12:13:07.067Z,68.20
2023-05-16T12:14:07.084Z,68.20
2023-05-16T12:15:03.607Z,68.20
2023-05-16T12:16:03.622Z,68.00
2023-05-16T12:17:04.761Z,68.00
2023-05-16T12:18:04.088Z,69.00
2023-05-16T12:19:03.688Z,68.40
2023-05-16T12:20:07.067Z,68.70
2023-05-16T12:21:08.552Z,68.60
2023-05-16T12:23:03.554Z,68.00
2023-05-16T12:24:04.154Z,68.00
2023-05-16T12:25:04.312Z,68.10
2023-05-16T12:26:03.980Z,68.10
2023-05-16T12:28:04.244Z,67.90
2023-05-16T12:29:07.058Z,67.90
2023-05-16T12:30:08.552Z,67.70
2023-05-16T12:31:27.009Z,68.00
2023-05-16T12:32:03.708Z,68.00
2023-05-16T12:33:08.548Z,68.30
2023-05-16T12:35:03.604Z,68.30
2023-05-16T12:36:07.117Z,68.60
2023-05-16T12:37:03.722Z,68.40
2023-05-16T12:38:04.340Z,69.00
2023-05-16T12:39:09.433Z,69.70
2023-05-16T12:41:07.072Z,69.60
2023-05-16T12:42:13.585Z,69.40
2023-05-16T12:44:03.482Z,69.70
2023-05-16T12:45:04.068Z,70.00
2023-05-16T12:46:08.739Z,69.70
2023-05-16T12:47:04.299Z,70.00
2023-05-16T12:49:04.454Z,69.90
2023-05-16T12:50:09.149Z,70.30
2023-05-16T12:53:09.131Z,71.10
2023-05-16T12:54:10.667Z,71.10
2023-05-16T12:56:03.973Z,71.20
2023-05-16T12:57:03.465Z,71.30
2023-05-16T12:58:07.190Z,71.90
2023-05-16T12:59:03.672Z,71.80
2023-05-16T13:00:07.111Z,71.40
2023-05-16T13:01:07.151Z,71.90
2023-05-16T13:03:07.333Z,71.40
2023-05-16T13:04:07.284Z,71.00
2023-05-16T13:05:03.790Z,70.90
2023-05-16T13:06:04.456Z,71.30
2023-05-16T13:07:04.057Z,71.40
2023-05-16T13:08:03.614Z,71.50
2023-05-16T13:09:04.176Z,71.90
2023-05-16T13:10:03.769Z,72.40
2023-05-16T13:11:04.442Z,71.50
2023-05-16T13:12:04.363Z,70.90
2023-05-16T13:13:07.142Z,71.00
2023-05-16T13:15:04.177Z,70.40
2023-05-16T13:16:09.046Z,71.50
2023-05-16T13:17:03.536Z,70.90
2023-05-16T13:18:04.225Z,71.00
2023-05-16T13:19:08.945Z,70.90
2023-05-16T13:21:07.118Z,71.20
2023-05-16T13:23:04.292Z,71.00
2023-05-16T13:24:07.124Z,70.90
2023-05-16T13:25:07.125Z,69.30
2023-05-16T13:27:07.144Z,68.50
2023-05-16T13:28:03.501Z,68.30
2023-05-16T13:29:04.338Z,69.10
2023-05-16T13:30:07.143Z,69.80
2023-05-16T13:31:07.224Z,69.50
2023-05-16T13:33:09.550Z,66.20
2023-05-16T13:34:04.147Z,65.60
2023-05-16T13:35:03.771Z,66.30
2023-05-16T13:36:04.354Z,70.20
2023-05-16T13:37:07.116Z,70.60
2023-05-16T13:38:07.133Z,69.70
2023-05-16T13:40:07.144Z,70.00
2023-05-16T13:41:07.166Z,69.50
2023-05-16T13:43:07.133Z,69.40
2023-05-16T13:44:03.719Z,69.30
2023-05-16T13:45:07.151Z,68.60
2023-05-16T13:46:03.549Z,67.80
2023-05-16T13:47:11.658Z,68.80
2023-05-16T13:49:03.672Z,68.70
2023-05-16T13:50:04.494Z,68.50
2023-05-16T13:51:04.179Z,69.40
2023-05-16T13:53:04.239Z,68.70
2023-05-16T13:54:03.740Z,69.10
2023-05-16T13:55:04.315Z,67.60
2023-05-16T13:56:09.115Z,68.20
2023-05-16T13:58:04.264Z,67.50
2023-05-16T13:59:07.947Z,67.50
2023-05-16T14:00:43.966Z,67.50
2023-05-16T14:03:07.436Z,66.60
2023-05-16T14:04:04.119Z,66.80
2023-05-16T14:05:03.827Z,67.30
2023-05-16T14:06:04.339Z,64.90
2023-05-16T14:07:03.861Z,65.20
2023-05-16T14:08:04.492Z,67.50
2023-05-16T14:10:03.683Z,64.50
2023-05-16T14:11:04.176Z,65.50
2023-05-16T14:12:08.804Z,63.90
2023-05-16T14:14:03.966Z,62.00
2023-05-16T14:15:08.743Z,59.70
2023-05-16T14:17:03.963Z,61.80
2023-05-16T14:18:03.795Z,63.30
2023-05-16T14:19:04.406Z,63.30
2023-05-16T14:20:07.160Z,62.70
2023-05-16T14:22:07.213Z,61.80
2023-05-16T14:24:04.233Z,61.20
2023-05-16T14:25:07.169Z,60.10
2023-05-16T14:26:08.759Z,60.00
2023-05-16T14:28:08.723Z,60.10
2023-05-16T14:31:04.688Z,57.20
2023-05-16T14:32:07.254Z,56.40
2023-05-16T14:33:07.238Z,61.50
2023-05-16T14:35:04.505Z,56.20
2023-05-16T14:36:09.020Z,58.10
2023-05-16T14:37:03.471Z,58.30
2023-05-16T14:38:04.065Z,58.40
2023-05-16T14:39:07.253Z,60.30
2023-05-16T14:40:03.736Z,59.60
2023-05-16T14:41:04.306Z,56.40
2023-05-16T14:42:09.026Z,56.60
2023-05-16T14:43:11.215Z,56.20
2023-05-16T14:45:07.195Z,62.70
2023-05-16T14:46:03.642Z,62.10
2023-05-16T14:47:04.305Z,62.20
2023-05-16T14:49:04.342Z,62.30
2023-05-16T14:50:09.060Z,62.10
2023-05-16T14:52:07.202Z,61.10
2023-05-16T14:54:04.298Z,54.00
2023-05-16T14:55:08.982Z,60.20
2023-05-16T14:56:04.427Z,60.10
2023-05-16T14:57:07.253Z,53.00
2023-05-16T14:58:07.215Z,52.70
2023-05-16T14:59:07.255Z,53.20
2023-05-16T15:01:07.292Z,53.40
2023-05-16T15:02:03.935Z,53.30
2023-05-16T15:03:03.733Z,53.40
2023-05-16T15:04:04.374Z,60.30
2023-05-16T15:05:07.292Z,59.60
2023-05-16T15:06:07.208Z,59.50
2023-05-16T15:08:07.188Z,58.80
2023-05-16T15:09:07.219Z,57.80
2023-05-16T15:11:04.384Z,57.90
2023-05-16T15:12:04.028Z,58.30
2023-05-16T15:13:07.188Z,53.90
2023-05-16T15:15:04.513Z,56.30
2023-05-16T15:16:07.310Z,56.30
2023-05-16T15:18:07.290Z,54.50
2023-05-16T15:19:07.296Z,56.70
2023-05-16T15:21:04.514Z,55.60
2023-05-16T15:22:07.223Z,57.20
2023-05-16T15:23:03.648Z,57.10
2023-05-16T15:24:04.387Z,54.30
2023-05-16T15:26:03.711Z,54.30
2023-05-16T15:27:04.282Z,54.80
2023-05-16T15:28:03.896Z,52.20
2023-05-16T15:29:03.796Z,55.00
2023-05-16T15:30:04.486Z,54.80
2023-05-16T15:31:04.173Z,54.70
2023-05-16T15:32:03.872Z,54.30
2023-05-16T15:33:04.579Z,54.50
2023-05-16T15:34:04.166Z,54.00
2023-05-16T15:35:03.747Z,53.70
2023-05-16T15:36:04.354Z,53.20
2023-05-16T15:37:08.968Z,52.90
2023-05-16T15:38:11.951Z,52.70
2023-05-16T15:40:03.971Z,52.30
2023-05-16T15:41:31.779Z,52.70
2023-05-16T15:43:07.294Z,52.70
2023-05-16T15:44:11.377Z,52.50
2023-05-16T15:45:03.865Z,52.80
2023-05-16T15:46:03.540Z,52.30
2023-05-16T15:47:04.133Z,51.80
2023-05-16T15:48:03.944Z,53.30
2023-05-16T15:50:04.116Z,51.30
2023-05-16T15:51:07.212Z,51.80
2023-05-16T15:53:07.287Z,50.40
2023-05-16T15:54:07.271Z,50.70
2023-05-16T15:56:04.351Z,51.30
2023-05-16T15:57:07.252Z,51.40
2023-05-16T15:58:03.675Z,51.40
2023-05-16T15:59:07.256Z,51.00
2023-05-16T16:01:04.548Z,50.80
2023-05-16T16:02:04.048Z,50.70
2023-05-16T16:03:07.483Z,49.50
2023-05-16T16:04:07.723Z,47.20
2023-05-16T16:06:07.292Z,50.00
2023-05-16T16:07:07.278Z,51.70
2023-05-16T16:09:04.267Z,50.20
2023-05-16T16:10:03.958Z,50.70